Culp Creek, OR (97427)

2:26 PM PST on January 29, 2015 (GMT -0800)
Westfir Road | Change Station
CLOSE
Current Station
Personal Weather Station
Location: Westfir, OR
Elevation: 1083 ft
Nearby Weather Stations

Elev 1083 ft 43.76 °N, 122.50 °W | Updated 5 seconds ago

Mostly Cloudy
Mostly Cloudy
55.8 °F
Feels Like 55.8 °F
N
9.2
Wind Variable Wind from SSW
Gusts 9.2 mph

Today
High -- | Low -- °F
--% Chance of Precip.
Yesterday
High -- | Low -- °F
Precip. -- in
7:31 AM 5:18 PM
Waxing Gibbous, 77% visible
Pressure 30.24 in
Visibility 10.0 miles
Clouds Scattered Clouds 1000 ft
Dew Point 44 °F
Humidity 65%
Rainfall 0.00 in
Snow Depth Not available.
UV 2 out of 12
Pollen 4.10 out of 12
Air Quality Not available.
Flu Activity Not available.
METAR KEUG 292154Z 06006KT 10SM SCT010 11/08 A3024 RMK AO2 SLP240 T01110078

More Conditions Fewer Conditions

Pressure 30.24 in
Visibility 10.0 miles
Clouds Scattered Clouds 1000 ft
Dew Point 44 °F
Humidity 65%
Rainfall 0.00 in
Snow Depth Not available.
UV 2 out of 12
Pollen 4.10 out of 12
Air Quality Not available.
Flu Activity Not available.
METAR KEUG 292154Z 06006KT 10SM SCT010 11/08 A3024 RMK AO2 SLP240 T01110078

More Conditions Fewer Conditions

10-Day Weather Forecast

Almanac

Astronomy

Jan. 29, 2015 Rise Set
Actual Time
Civil Twilight
Nautical Twilight
Astronomical Twilight
Moon
Length of Visible Light
Length of Day
Tomorrow will be .
, % of the Moon is Illuminated

Today's Extremes

State Highs State Lows

Community

WunderPhotos

Upload Photos

1,791,629 photos uploaded!

WunderBlogs® & News

Nearby

Air Quality

  Air Quality AQ Index Pollutant
Not available.

Snow Depth

Station Depth Elevation

Earthquake Activity

City Distance Mag. Time & Date
Minimum magnitude displayed is 2.5.

Coastal Water Temperatures

Place Temperature

Nearby Weather Stations